Time;durP1;ratioP1;P1;durP2;ratioP2;P2;SDS_P1;SDS_P2;PMS_P1;PMS_P2;Temp;Humidity;BMP_temperature;BMP_pressure;BME280_temperature;BME280_humidity;BME280_pressure;Samples;Min_cycle;Max_cycle;Signal;HPM_P1;HPM_P2
2022/04/24 00:00:17;;;;;;;0.43;0.43;;;;;;;7.84;62.71;98966.88;5096286;28;20420;-80
2022/04/24 00:02:45;;;;;;;0.40;0.40;;;;;;;7.92;62.50;98960.34;5131723;28;20129;-81
2022/04/24 00:05:13;;;;;;;0.40;0.40;;;;;;;8.00;62.36;98974.31;5131497;28;20039;-81
2022/04/24 00:07:40;;;;;;;0.40;0.40;;;;;;;8.07;62.15;98968.81;5113825;28;20057;-79
2022/04/24 00:10:10;;;;;;;0.40;0.40;;;;;;;8.14;62.22;98968.72;5113161;28;20048;-81
2022/04/24 00:12:38;;;;;;;0.40;0.40;;;;;;;8.18;61.91;98969.91;5131682;28;20614;-80
2022/04/24 00:15:06;;;;;;;0.40;0.40;;;;;;;8.20;61.93;98963.25;5113770;28;20051;-81
2022/04/24 00:17:34;;;;;;;0.40;0.40;;;;;;;8.24;61.91;98964.41;5113984;28;20054;-79
2022/04/24 00:20:01;;;;;;;0.40;0.40;;;;;;;8.27;61.38;98965.81;5131148;28;20082;-81
2022/04/24 00:22:28;;;;;;;0.40;0.40;;;;;;;8.24;61.46;98960.91;5131509;28;20066;-80
2022/04/24 00:24:55;;;;;;;0.40;0.40;;;;;;;8.24;61.63;98961.72;5131112;28;20051;-81
2022/04/24 00:27:22;;;;;;;0.50;0.50;;;;;;;8.23;61.52;98952.03;5131241;28;20051;-81
2022/04/24 00:29:50;;;;;;;0.40;0.40;;;;;;;8.23;61.17;98952.03;5112785;28;20071;-79
2022/04/24 00:32:17;;;;;;;0.40;0.40;;;;;;;8.23;61.63;98946.66;5131022;28;20545;-81
2022/04/24 00:34:44;;;;;;;0.40;0.40;;;;;;;8.24;61.59;98952.84;5131386;27;20078;-80
2022/04/24 00:37:12;;;;;;;0.40;0.40;;;;;;;8.24;61.68;98952.84;5134261;27;20075;-80
2022/04/24 00:39:45;;;;;;;0.40;0.40;;;;;;;8.22;61.59;98954.94;5095757;28;20501;-81
2022/04/24 00:42:16;;;;;;;0.40;0.40;;;;;;;8.17;61.70;98950.25;5114077;28;20142;-81
2022/04/24 00:44:49;;;;;;;0.40;0.40;;;;;;;8.13;61.75;98941.03;5078859;28;20051;-81
2022/04/24 00:47:48;;;;;;;0.40;0.40;;;;;;;8.10;61.63;98941.50;5082297;28;20416;-80
2022/04/24 00:50:17;;;;;;;0.40;0.40;;;;;;;8.13;61.67;98945.59;5103936;28;20043;-81
2022/04/24 00:52:49;;;;;;;0.40;0.40;;;;;;;8.13;61.60;98949.09;5105277;28;20044;-80
2022/04/24 00:55:23;;;;;;;0.40;0.40;;;;;;;8.08;62.07;98954.34;5104000;28;20523;-82
2022/04/24 00:57:51;;;;;;;0.40;0.40;;;;;;;8.06;62.06;98940.31;5117663;28;20058;-80
2022/04/24 01:00:18;;;;;;;0.40;0.40;;;;;;;8.09;61.97;98937.16;5095629;28;20060;-80
2022/04/24 01:02:47;;;;;;;0.40;0.40;;;;;;;8.11;61.88;98932.38;5080244;28;20104;-80
2022/04/24 01:05:17;;;;;;;0.40;0.40;;;;;;;8.16;61.51;98937.06;5096082;28;20229;-79
2022/04/24 01:07:47;;;;;;;0.40;0.40;;;;;;;8.20;61.16;98938.22;5114205;28;20047;-81
2022/04/24 01:10:19;;;;;;;0.40;0.40;;;;;;;8.24;61.35;98942.09;5112256;28;20494;-80
2022/04/24 01:12:47;;;;;;;0.40;0.40;;;;;;;8.25;61.27;98941.03;5080405;28;20043;-80
2022/04/24 01:15:15;;;;;;;0.50;0.50;;;;;;;8.25;61.08;98939.19;5079400;28;20053;-79
2022/04/24 01:17:53;;;;;;;0.40;0.40;;;;;;;8.28;61.03;98929.00;5095745;28;20451;-80
2022/04/24 01:20:24;;;;;;;0.40;0.40;;;;;;;8.28;60.82;98924.47;5113321;28;20066;-82
2022/04/24 01:23:02;;;;;;;0.40;0.40;;;;;;;8.34;60.57;98928.91;5113686;28;20132;-81
2022/04/24 01:25:30;;;;;;;0.40;0.40;;;;;;;8.41;60.09;98931.53;5095529;28;20054;-81
2022/04/24 01:27:57;;;;;;;0.40;0.40;;;;;;;8.42;59.80;98917.84;5113374;28;20071;-81
2022/04/24 01:30:24;;;;;;;0.40;0.40;;;;;;;8.48;59.66;98926.84;5113363;28;20120;-80
2022/04/24 01:32:51;;;;;;;0.40;0.40;;;;;;;8.52;59.69;98925.31;5113315;28;20057;-81
2022/04/24 01:35:19;;;;;;;0.40;0.40;;;;;;;8.55;59.50;98916.78;5113245;28;20051;-81
2022/04/24 01:37:46;;;;;;;0.40;0.40;;;;;;;8.58;59.27;98920.88;5113405;28;20101;-80
2022/04/24 01:40:13;;;;;;;0.40;0.40;;;;;;;8.61;58.98;98915.06;5111444;28;20062;-80
2022/04/24 01:42:40;;;;;;;0.40;0.40;;;;;;;8.62;58.88;98912.13;5095003;28;20131;-80
2022/04/24 01:45:07;;;;;;;0.40;0.40;;;;;;;8.62;58.82;98906.72;5112755;28;20047;-81
2022/04/24 01:47:34;;;;;;;0.40;0.40;;;;;;;8.66;58.66;98909.78;5112987;28;20058;-81
2022/04/24 01:50:01;;;;;;;0.40;0.40;;;;;;;8.70;58.13;98908.25;5094631;28;20051;-81
2022/04/24 01:52:28;;;;;;;0.40;0.40;;;;;;;8.75;57.73;98904.88;5095036;28;20520;-80
2022/04/24 01:54:56;;;;;;;0.40;0.40;;;;;;;8.76;57.77;98906.50;5113066;28;20101;-80
2022/04/24 01:57:23;;;;;;;0.40;0.40;;;;;;;8.77;57.52;98908.97;5094692;28;20126;-81
2022/04/24 01:59:50;;;;;;;0.47;0.47;;;;;;;8.78;57.58;98909.78;5112689;28;20139;-80
2022/04/24 02:02:17;;;;;;;0.40;0.40;;;;;;;8.80;57.51;98913.88;5112851;28;20053;-81
2022/04/24 02:04:44;;;;;;;0.40;0.40;;;;;;;8.84;57.32;98916.91;5112813;28;20047;-80
2022/04/24 02:07:11;;;;;;;0.40;0.40;;;;;;;8.83;57.10;98909.88;5112702;28;20142;-79
2022/04/24 02:09:40;;;;;;;0.40;0.40;;;;;;;8.86;56.87;98898.63;5112338;28;20079;-81
2022/04/24 02:12:07;;;;;;;0.40;0.40;;;;;;;8.89;56.77;98900.88;5112133;28;20108;-81
2022/04/24 02:14:35;;;;;;;0.40;0.40;;;;;;;8.91;56.43;98898.75;5112564;28;20093;-80
2022/04/24 02:17:03;;;;;;;0.40;0.40;;;;;;;8.93;56.49;98893.97;5111986;28;20056;-79
2022/04/24 02:19:30;;;;;;;0.40;0.40;;;;;;;8.93;56.44;98895.84;5112656;28;20044;-79
2022/04/24 02:21:57;;;;;;;0.40;0.40;;;;;;;8.92;56.81;98894.22;5112430;28;20143;-81
2022/04/24 02:24:24;;;;;;;0.40;0.40;;;;;;;8.91;56.79;98893.38;5112055;28;20138;-81
2022/04/24 02:26:51;;;;;;;0.40;0.40;;;;;;;8.90;57.01;98889.06;5091963;28;20672;-81
2022/04/24 02:29:19;;;;;;;0.40;0.40;;;;;;;8.89;57.15;98890.13;5091425;28;20043;-80
2022/04/24 02:31:46;;;;;;;0.50;0.50;;;;;;;8.92;57.12;98889.63;5091665;28;20047;-80
2022/04/24 02:34:14;;;;;;;0.43;0.43;;;;;;;8.91;57.10;98887.97;5091635;28;20052;-80
2022/04/24 02:36:41;;;;;;;0.40;0.40;;;;;;;8.90;56.96;98892.56;5091806;28;20056;-80
2022/04/24 02:39:08;;;;;;;0.40;0.40;;;;;;;8.90;56.90;98894.44;5073207;28;20054;-80
2022/04/24 02:41:35;;;;;;;0.50;0.50;;;;;;;8.90;57.15;98897.13;5091634;28;20071;-81
2022/04/24 02:44:03;;;;;;;0.40;0.40;;;;;;;8.92;56.79;98895.03;5090093;28;20544;-82
2022/04/24 02:46:30;;;;;;;0.40;0.40;;;;;;;8.90;56.83;98897.13;5091775;28;20072;-81
2022/04/24 02:48:57;;;;;;;0.40;0.40;;;;;;;8.94;56.62;98901.00;5091447;28;20501;-80
2022/04/24 02:51:24;;;;;;;0.40;0.40;;;;;;;8.95;56.45;98899.94;5091236;28;20356;-79
2022/04/24 02:53:52;;;;;;;0.40;0.40;;;;;;;8.96;56.48;98898.03;5092024;28;20047;-82
2022/04/24 02:56:19;;;;;;;0.40;0.40;;;;;;;8.99;56.43;98893.03;5102245;28;20055;-81
2022/04/24 02:58:46;;;;;;;0.40;0.40;;;;;;;9.02;55.97;98895.25;5111371;28;20052;-81
2022/04/24 03:01:13;;;;;;;0.40;0.40;;;;;;;9.05;55.95;98900.16;5111131;28;20454;-82
2022/04/24 03:03:42;;;;;;;0.40;0.40;;;;;;;9.05;55.80;98889.38;5112473;28;20059;-81
2022/04/24 03:06:09;;;;;;;0.40;0.40;;;;;;;9.10;55.55;98894.88;5111881;28;20593;-80
2022/04/24 03:08:37;;;;;;;0.40;0.40;;;;;;;9.11;55.80;98893.81;5112340;28;20573;-81
2022/04/24 03:11:03;;;;;;;0.40;0.40;;;;;;;9.09;55.72;98893.25;5111770;28;20040;-82
2022/04/24 03:13:30;;;;;;;0.40;0.40;;;;;;;9.11;55.82;98898.38;5112170;28;20062;-81
2022/04/24 03:15:57;;;;;;;0.40;0.40;;;;;;;9.17;55.26;98891.25;5112336;28;20047;-81
2022/04/24 03:18:25;;;;;;;0.40;0.40;;;;;;;9.20;55.18;98896.94;5110507;28;20067;-81
2022/04/24 03:20:52;;;;;;;0.40;0.40;;;;;;;9.25;54.95;98880.91;5112128;28;20547;-80
2022/04/24 03:23:20;;;;;;;0.40;0.40;;;;;;;9.25;54.75;98891.66;5111831;28;20054;-80
2022/04/24 03:25:47;;;;;;;0.40;0.40;;;;;;;9.30;55.04;98893.66;5123493;28;20520;-82
2022/04/24 03:28:14;;;;;;;0.40;0.40;;;;;;;9.32;54.63;98894.25;5114337;28;20133;-81
2022/04/24 03:30:41;;;;;;;0.40;0.40;;;;;;;9.35;54.73;98896.44;5132207;28;20055;-81
2022/04/24 03:33:09;;;;;;;0.40;0.40;;;;;;;9.38;54.67;98898.66;5132240;28;20053;-81
2022/04/24 03:35:36;;;;;;;0.40;0.40;;;;;;;9.42;54.53;98896.28;5132107;28;20138;-82
2022/04/24 03:38:03;;;;;;;0.40;0.40;;;;;;;9.42;54.55;98891.75;5113480;28;20043;-81
2022/04/24 03:40:30;;;;;;;0.40;0.40;;;;;;;9.44;54.42;98896.88;5132554;28;20055;-82
2022/04/24 03:42:57;;;;;;;0.40;0.40;;;;;;;9.46;54.53;98892.06;5114269;28;20425;-82
2022/04/24 03:45:24;;;;;;;0.40;0.40;;;;;;;9.45;54.60;98895.84;5131847;28;20525;-82
2022/04/24 03:47:54;;;;;;;0.40;0.40;;;;;;;9.46;54.54;98890.19;5113290;28;20513;-82
2022/04/24 03:50:21;;;;;;;0.40;0.40;;;;;;;9.49;54.53;98888.88;5113624;28;20043;-82
2022/04/24 03:52:50;;;;;;;0.40;0.40;;;;;;;9.52;54.58;98886.56;5131944;28;20073;-81
2022/04/24 03:55:17;;;;;;;0.40;0.40;;;;;;;9.53;54.59;98888.19;5113406;28;20171;-82
2022/04/24 03:57:44;;;;;;;0.40;0.40;;;;;;;9.54;54.51;98892.53;5096645;28;20045;-82
2022/04/24 04:00:12;;;;;;;0.40;0.40;;;;;;;9.56;54.61;98884.19;5125813;28;20062;-80
2022/04/24 04:02:43;;;;;;;0.40;0.40;;;;;;;9.58;54.72;98881.25;5121045;27;20592;-80
2022/04/24 04:05:11;;;;;;;0.40;0.40;;;;;;;9.59;54.95;98880.19;5129262;28;20130;-79
2022/04/24 04:07:39;;;;;;;0.40;0.40;;;;;;;9.54;54.68;98868.28;5124080;28;20047;-79
2022/04/24 04:10:07;;;;;;;0.40;0.40;;;;;;;9.60;54.69;98868.38;5131402;27;20074;-78
2022/04/24 04:12:34;;;;;;;0.40;0.40;;;;;;;9.62;54.70;98871.63;5115234;27;20051;-79
2022/04/24 04:15:03;;;;;;;0.40;0.40;;;;;;;9.67;54.46;98877.09;5148113;27;20058;-80
2022/04/24 04:17:30;;;;;;;0.40;0.40;;;;;;;9.66;54.67;98868.19;5116542;27;20074;-81
2022/04/24 04:19:58;;;;;;;0.40;0.40;;;;;;;9.67;54.75;98872.56;5113795;28;20052;-81
2022/04/24 04:22:25;;;;;;;0.40;0.40;;;;;;;9.69;54.46;98866.91;5117441;27;20138;-80
2022/04/24 04:24:52;;;;;;;0.40;0.40;;;;;;;9.72;54.76;98855.63;5120707;27;20533;-80
2022/04/24 04:27:19;;;;;;;0.40;0.40;;;;;;;9.74;54.59;98862.41;5117046;27;20132;-80
2022/04/24 04:29:46;;;;;;;0.40;0.40;;;;;;;9.78;54.42;98868.16;5125632;27;20139;-77
2022/04/24 04:32:13;;;;;;;0.40;0.40;;;;;;;9.80;54.59;98863.34;5126892;27;20561;-80
2022/04/24 04:34:40;;;;;;;0.40;0.40;;;;;;;9.81;54.58;98874.94;5121020;27;20035;-79
2022/04/24 04:37:08;;;;;;;0.40;0.40;;;;;;;9.79;54.73;98877.88;5122087;27;20052;-82
2022/04/24 04:39:35;;;;;;;0.40;0.40;;;;;;;9.76;54.86;98876.47;5121329;27;20043;-79
2022/04/24 04:42:06;;;;;;;0.50;0.50;;;;;;;9.72;55.10;98877.19;5106809;27;20059;-80
2022/04/24 04:44:34;;;;;;;0.40;0.40;;;;;;;9.70;55.25;98877.44;5103101;27;20074;-78
2022/04/24 04:47:01;;;;;;;0.40;0.40;;;;;;;9.70;55.27;98876.63;5097205;27;20069;-80
2022/04/24 04:49:28;;;;;;;0.40;0.40;;;;;;;9.69;55.28;98866.91;5095632;28;20097;-83
2022/04/24 04:51:55;;;;;;;0.40;0.40;;;;;;;9.64;55.50;98864.94;5110113;27;20051;-80
2022/04/24 04:54:22;;;;;;;0.40;0.40;;;;;;;9.61;55.97;98870.00;5134451;27;20082;-79
2022/04/24 04:56:49;;;;;;;0.40;0.40;;;;;;;9.60;56.06;98862.97;5116487;27;20098;-80
2022/04/24 04:59:17;;;;;;;0.40;0.40;;;;;;;9.58;56.11;98855.13;5127513;27;20079;-80
2022/04/24 05:01:44;;;;;;;0.40;0.40;;;;;;;9.60;56.10;98866.50;5121289;27;20122;-81
2022/04/24 05:04:12;;;;;;;0.40;0.40;;;;;;;9.62;56.15;98859.00;5110488;27;20051;-80
2022/04/24 05:06:39;;;;;;;0.40;0.40;;;;;;;9.64;55.66;98856.84;5134947;27;20050;-84
2022/04/24 05:09:06;;;;;;;0.40;0.40;;;;;;;9.68;55.76;98851.81;5134474;27;20049;-80
2022/04/24 05:11:33;;;;;;;0.40;0.40;;;;;;;9.71;55.39;98854.00;5122041;27;20050;-82
2022/04/24 05:14:00;;;;;;;0.40;0.40;;;;;;;9.74;55.48;98856.22;5107030;28;20134;-82
2022/04/24 05:16:32;;;;;;;0.40;0.40;;;;;;;9.73;55.69;98852.72;5114648;28;20063;-83
2022/04/24 05:18:59;;;;;;;0.40;0.40;;;;;;;9.74;55.39;98859.72;5114622;28;20126;-83
2022/04/24 05:21:26;;;;;;;0.40;0.40;;;;;;;9.74;55.88;98853.53;5114268;28;20124;-82
2022/04/24 05:23:53;;;;;;;0.40;0.40;;;;;;;9.75;55.89;98860.56;5101528;28;20127;-81
2022/04/24 05:26:21;;;;;;;0.40;0.40;;;;;;;9.75;56.06;98849.78;5131989;27;20515;-81
2022/04/24 05:28:48;;;;;;;0.40;0.40;;;;;;;9.79;56.01;98853.59;5134740;27;20455;-81
2022/04/24 05:31:15;;;;;;;0.40;0.40;;;;;;;9.81;56.19;98854.19;5133890;27;20505;-81
2022/04/24 05:33:42;;;;;;;0.40;0.40;;;;;;;9.85;56.13;98859.91;5134652;27;20160;-81
2022/04/24 05:36:09;;;;;;;0.40;0.40;;;;;;;9.86;56.06;98848.88;5134224;27;20047;-81
2022/04/24 05:38:36;;;;;;;0.40;0.40;;;;;;;9.95;55.91;98850.13;4774414;27;10000684;-81
2022/04/24 05:41:03;;;;;;;0.40;0.40;;;;;;;10.00;55.83;98843.97;5118544;27;20071;-81
2022/04/24 05:43:31;;;;;;;0.40;0.40;;;;;;;10.07;55.75;98844.63;5119339;27;20516;-81
2022/04/24 05:45:58;;;;;;;0.40;0.40;;;;;;;10.12;55.84;98842.03;5111813;28;20055;-81
2022/04/24 05:48:27;;;;;;;0.32;0.32;;;;;;;10.19;55.52;98831.09;5112550;28;20043;-82
2022/04/24 05:50:54;;;;;;;0.40;0.40;;;;;;;10.25;55.31;98829.28;5114123;27;20075;-81
2022/04/24 05:53:21;;;;;;;0.40;0.40;;;;;;;10.30;55.00;98829.38;5116384;27;20081;-81
2022/04/24 05:55:49;;;;;;;0.40;0.40;;;;;;;10.38;55.09;98837.88;5120254;27;20146;-82
2022/04/24 05:58:19;;;;;;;0.40;0.40;;;;;;;10.41;54.66;98826.59;5094181;28;20090;-83
2022/04/24 06:00:46;;;;;;;0.40;0.40;;;;;;;10.41;54.33;98821.19;5110732;28;20091;-81
2022/04/24 06:03:13;;;;;;;0.40;0.40;;;;;;;10.46;54.33;98819.63;5110274;28;20566;-82
2022/04/24 06:05:45;;;;;;;0.40;0.40;;;;;;;10.44;54.26;98824.47;5114924;27;20086;-82
2022/04/24 06:08:12;;;;;;;0.40;0.40;;;;;;;10.44;54.25;98814.50;5124510;27;20192;-81
2022/04/24 06:10:40;;;;;;;0.40;0.40;;;;;;;10.43;54.33;98822.81;5132034;27;20047;-82
2022/04/24 06:13:09;;;;;;;0.40;0.40;;;;;;;10.41;54.47;98815.00;5112830;27;20057;-81
2022/04/24 06:15:39;;;;;;;0.40;0.40;;;;;;;10.44;54.31;98819.09;5122029;27;20130;-81
2022/04/24 06:18:16;;;;;;;0.40;0.40;;;;;;;10.45;54.36;98813.41;5095648;27;20055;-80
2022/04/24 06:20:45;;;;;;;0.40;0.40;;;;;;;10.49;54.03;98816.44;5075629;27;20051;-81
2022/04/24 06:23:13;;;;;;;0.40;0.40;;;;;;;10.55;54.11;98820.84;5129302;27;20567;-79
2022/04/24 06:25:40;;;;;;;0.40;0.40;;;;;;;10.65;53.80;98818.28;5124993;27;20116;-81
2022/04/24 06:28:07;;;;;;;0.40;0.40;;;;;;;10.75;53.49;98814.91;5113867;27;20048;-81
2022/04/24 06:30:38;;;;;;;0.40;0.40;;;;;;;10.85;52.41;98813.16;5115256;27;20535;-82
2022/04/24 06:33:09;;;;;;;0.40;0.40;;;;;;;10.98;52.09;98813.84;5115096;27;20505;-81
2022/04/24 06:35:38;;;;;;;0.40;0.40;;;;;;;11.06;51.73;98808.84;5110159;27;20050;-81
2022/04/24 06:38:05;;;;;;;0.40;0.40;;;;;;;11.04;51.67;98808.25;5125275;27;20146;-80
2022/04/24 06:40:32;;;;;;;0.40;0.40;;;;;;;11.05;51.97;98806.38;5122292;27;20055;-80
2022/04/24 06:43:04;;;;;;;0.40;0.40;;;;;;;11.09;52.05;98803.97;5119935;27;20108;-80
2022/04/24 06:45:38;;;;;;;0.40;0.40;;;;;;;11.07;52.08;98806.94;5098381;28;20047;-81
2022/04/24 06:48:11;;;;;;;0.30;0.30;;;;;;;11.06;51.80;98805.28;5126163;27;20050;-82
2022/04/24 06:50:40;;;;;;;0.40;0.40;;;;;;;11.15;51.65;98808.38;5132861;27;20047;-81
2022/04/24 06:53:09;;;;;;;0.40;0.40;;;;;;;11.20;51.87;98805.72;5132502;27;20047;-82
2022/04/24 06:55:38;;;;;;;0.40;0.40;;;;;;;11.28;51.29;98806.09;5123069;27;20300;-82
2022/04/24 06:58:07;;;;;;;0.40;0.40;;;;;;;11.31;51.19;98801.25;5099854;27;20057;-80
2022/04/24 07:00:37;;;;;;;0.40;0.40;;;;;;;11.36;51.10;98804.00;5127816;27;20053;-80
2022/04/24 07:03:26;;;;;;;0.40;0.40;;;;;;;11.38;50.74;98794.56;5118484;27;20059;-80
2022/04/24 07:05:54;;;;;;;0.40;0.40;;;;;;;11.43;50.59;98793.81;5102167;28;20048;-82
2022/04/24 07:08:22;;;;;;;0.40;0.40;;;;;;;11.53;50.45;98799.31;5122066;27;20095;-81
2022/04/24 07:10:50;;;;;;;0.40;0.40;;;;;;;11.57;50.37;98800.44;5114082;27;20052;-79
2022/04/24 07:13:17;;;;;;;0.40;0.40;;;;;;;11.66;50.41;98789.97;5093823;28;20509;-79
2022/04/24 07:15:45;;;;;;;0.40;0.40;;;;;;;11.67;49.86;98800.53;5112133;28;20134;-80
2022/04/24 07:18:12;;;;;;;0.40;0.40;;;;;;;11.67;49.96;98795.13;5111942;28;20268;-79
2022/04/24 07:20:41;;;;;;;0.40;0.40;;;;;;;11.71;49.85;98804.34;5111653;28;20054;-81
2022/04/24 07:23:08;;;;;;;0.40;0.40;;;;;;;11.77;50.05;98799.78;5110743;28;20051;-80
2022/04/24 07:25:55;;;;;;;0.40;0.40;;;;;;;11.79;49.97;98794.94;5111341;28;20054;-81
2022/04/24 07:28:22;;;;;;;0.40;0.40;;;;;;;11.72;50.27;98802.44;5109255;28;20124;-81
2022/04/24 07:30:50;;;;;;;0.40;0.40;;;;;;;11.74;49.93;98799.50;5110726;28;20109;-81
2022/04/24 07:33:17;;;;;;;0.40;0.40;;;;;;;11.72;49.95;98805.16;5118204;28;20040;-80
2022/04/24 07:35:44;;;;;;;0.40;0.40;;;;;;;11.76;50.05;98800.88;5109764;28;20055;-82
2022/04/24 07:38:14;;;;;;;0.40;0.40;;;;;;;11.81;49.89;98794.69;5111166;28;20048;-81
2022/04/24 07:40:41;;;;;;;0.40;0.40;;;;;;;11.91;50.21;98789.41;5116282;28;20437;-79
2022/04/24 07:43:10;;;;;;;0.40;0.40;;;;;;;11.99;50.03;98791.63;5106629;28;20043;-80
2022/04/24 07:45:41;;;;;;;0.50;0.50;;;;;;;12.07;49.99;98785.72;5119536;27;20078;-80
2022/04/24 07:48:11;;;;;;;0.50;0.50;;;;;;;12.10;49.54;98771.72;5114516;27;20502;-81
2022/04/24 07:50:51;;;;;;;0.47;0.47;;;;;;;12.22;49.40;98776.09;5098257;27;20054;-80
2022/04/24 07:53:19;;;;;;;0.40;0.40;;;;;;;12.27;49.34;98782.34;5132000;27;20051;-82
2022/04/24 07:55:49;;;;;;;0.40;0.40;;;;;;;12.39;49.46;98787.59;5126683;27;20040;-81
2022/04/24 07:58:17;;;;;;;0.40;0.40;;;;;;;12.51;49.24;98781.97;5077264;27;20099;-82
2022/04/24 08:00:45;;;;;;;0.40;0.40;;;;;;;12.62;48.81;98769.28;5100448;27;20050;-82
2022/04/24 08:03:14;;;;;;;0.40;0.40;;;;;;;12.72;48.81;98777.47;5114311;27;20664;-80
2022/04/24 08:05:44;;;;;;;0.50;0.50;;;;;;;12.70;48.97;98776.91;5110912;28;20074;-81
2022/04/24 08:08:17;;;;;;;0.50;0.50;;;;;;;12.74;48.61;98767.19;5094021;27;20051;-81
2022/04/24 08:10:50;;;;;;;0.50;0.50;;;;;;;12.70;48.89;98769.59;5098534;27;20047;-82
2022/04/24 08:13:19;;;;;;;0.40;0.40;;;;;;;12.67;49.18;98772.03;5117340;27;20563;-81
2022/04/24 08:15:50;;;;;;;0.40;0.40;;;;;;;12.66;49.24;98775.78;5119830;27;20051;-83
2022/04/24 08:18:18;;;;;;;0.40;0.40;;;;;;;12.59;49.08;98773.34;5118204;27;20039;-80
2022/04/24 08:20:46;;;;;;;0.40;0.40;;;;;;;12.57;49.42;98781.72;5105913;27;20458;-81
2022/04/24 08:23:17;;;;;;;0.40;0.40;;;;;;;12.72;49.16;98772.06;5122078;27;20059;-82
2022/04/24 08:25:45;;;;;;;0.40;0.40;;;;;;;12.83;48.90;98760.16;5119683;27;20047;-79
2022/04/24 08:28:15;;;;;;;0.40;0.40;;;;;;;13.06;48.79;98764.31;5094968;28;20097;-81
2022/04/24 08:30:47;;;;;;;0.50;0.50;;;;;;;13.17;48.15;98768.69;5083126;28;20075;-81
2022/04/24 08:33:20;;;;;;;0.40;0.40;;;;;;;13.24;48.07;98765.72;5114797;28;20108;-81
2022/04/24 08:35:48;;;;;;;0.40;0.40;;;;;;;13.35;47.66;98764.69;5094466;27;20048;-79
2022/04/24 08:38:16;;;;;;;0.40;0.40;;;;;;;13.49;47.39;98758.75;5127209;27;20047;-80
2022/04/24 08:40:46;;;;;;;0.50;0.50;;;;;;;13.66;47.04;98762.00;5108334;27;20043;-80
2022/04/24 08:43:14;;;;;;;0.40;0.40;;;;;;;13.77;47.18;98755.50;5091216;27;20634;-81
2022/04/24 08:45:44;;;;;;;0.40;0.40;;;;;;;13.98;46.79;98760.94;5101772;27;20039;-81
2022/04/24 08:48:11;;;;;;;0.40;0.40;;;;;;;14.19;46.53;98761.72;5131963;27;20130;-80
2022/04/24 08:50:39;;;;;;;0.40;0.40;;;;;;;14.34;46.22;98758.16;5126262;27;20047;-82
2022/04/24 08:53:07;;;;;;;0.40;0.40;;;;;;;14.60;45.84;98757.03;5094164;28;20071;-81
2022/04/24 08:55:34;;;;;;;0.40;0.40;;;;;;;14.76;44.99;98757.75;5093296;28;20071;-81
2022/04/24 08:58:02;;;;;;;0.40;0.40;;;;;;;14.89;45.19;98759.09;5111224;27;20051;-81
2022/04/24 09:00:29;;;;;;;0.50;0.50;;;;;;;15.15;44.85;98757.88;5108228;27;20131;-82
2022/04/24 09:03:00;;;;;;;0.50;0.50;;;;;;;15.41;44.22;98748.75;5117270;27;20043;-81
2022/04/24 09:05:30;;;;;;;0.50;0.50;;;;;;;15.58;43.72;98749.16;5127473;27;20047;-81
2022/04/24 09:08:08;;;;;;;0.50;0.50;;;;;;;15.85;43.10;98756.88;5112649;27;20043;-81
2022/04/24 09:10:57;;;;;;;0.50;0.50;;;;;;;16.16;42.63;98743.00;5112436;27;20130;-82
2022/04/24 09:14:14;;;;;;;0.50;0.50;;;;;;;16.65;41.92;98744.63;5116901;27;20053;-82
2022/04/24 09:16:20;;;;;;;0.50;0.50;;;;;;;17.10;40.85;98734.28;5114574;27;20099;-81
2022/04/24 09:18:47;;;;;;;0.52;0.52;;;;;;;17.32;40.24;98736.44;5111670;28;20054;-83
2022/04/24 09:21:14;;;;;;;0.60;0.60;;;;;;;17.96;39.03;98728.59;5111045;28;20055;-82
2022/04/24 09:23:51;;;;;;;0.40;0.40;;;;;;;17.96;38.95;98723.16;5091569;28;20052;-80
2022/04/24 09:26:23;;;;;;;0.40;0.40;;;;;;;17.56;39.29;98717.22;5111133;27;20106;-81
2022/04/24 09:29:13;;;;;;;0.40;0.40;;;;;;;16.96;40.68;98711.56;5110557;28;20049;-81
2022/04/24 09:31:50;;;;;;;0.30;0.30;;;;;;;16.33;41.88;98723.47;5098576;28;20047;-80
2022/04/24 09:34:21;;;;;;;0.30;0.30;;;;;;;15.82;42.44;98717.44;5092084;28;20051;-82
2022/04/24 09:37:00;;;;;;;0.30;0.30;;;;;;;15.53;43.76;98719.28;5091481;28;20051;-83
2022/04/24 09:39:28;;;;;;;0.30;0.30;;;;;;;15.15;44.33;98729.88;5116665;27;20048;-83
2022/04/24 09:42:05;;;;;;;0.30;0.30;;;;;;;14.95;45.20;98728.09;5127823;27;20047;-80
2022/04/24 09:44:39;;;;;;;0.30;0.30;;;;;;;14.80;46.28;98722.72;5103827;27;20104;-84
2022/04/24 09:47:32;;;;;;;0.30;0.30;;;;;;;14.85;45.88;98725.41;5107883;27;20133;-81
2022/04/24 09:50:01;;;;;;;0.40;0.40;;;;;;;14.92;45.98;98729.47;5122893;27;20510;-82
2022/04/24 09:52:50;;;;;;;0.40;0.40;;;;;;;15.17;45.47;98717.63;5105252;28;20052;-82
2022/04/24 09:55:20;;;;;;;0.40;0.40;;;;;;;15.28;44.68;98725.72;5047550;28;20116;-84
2022/04/24 09:57:48;;;;;;;0.40;0.40;;;;;;;15.35;44.28;98715.34;5015242;28;20194;-82
2022/04/24 10:00:15;;;;;;;0.50;0.45;;;;;;;15.39;43.15;98714.50;5007407;28;20148;-83
2022/04/24 10:02:44;;;;;;;0.40;0.40;;;;;;;15.46;43.06;98725.03;5021220;28;20200;-82
2022/04/24 10:05:12;;;;;;;0.30;0.30;;;;;;;15.39;42.35;98714.50;5019984;28;20054;-81
2022/04/24 10:07:39;;;;;;;0.30;0.30;;;;;;;15.16;42.24;98717.91;4994064;28;20082;-82
2022/04/24 10:10:26;;;;;;;0.30;0.30;;;;;;;14.92;42.49;98744.94;4995456;28;20512;-81
2022/04/24 10:13:01;;;;;;;0.30;0.30;;;;;;;14.55;43.94;98732.59;5018086;28;20052;-81
2022/04/24 10:15:30;;;;;;;0.30;0.30;;;;;;;14.26;44.61;98730.50;5019879;28;20052;-82
2022/04/24 10:18:17;;;;;;;0.30;0.30;;;;;;;14.15;45.25;98745.16;5021373;28;20050;-83
2022/04/24 10:20:55;;;;;;;0.30;0.30;;;;;;;14.06;46.44;98730.53;5020702;28;20057;-80
2022/04/24 10:23:39;;;;;;;0.30;0.30;;;;;;;13.86;47.09;98740.31;5017707;28;20056;-81
2022/04/24 10:26:17;;;;;;;0.40;0.40;;;;;;;13.73;47.54;98723.78;5044868;28;20138;-80
2022/04/24 10:28:46;;;;;;;0.30;0.30;;;;;;;13.63;47.94;98738.16;5093953;27;20446;-81
2022/04/24 10:31:16;;;;;;;0.30;0.30;;;;;;;13.47;49.85;98747.34;5115006;27;20496;-82
2022/04/24 10:33:54;;;;;;;0.40;0.40;;;;;;;13.39;49.73;98764.97;5117089;27;20054;-81
2022/04/24 10:36:21;;;;;;;0.40;0.40;;;;;;;13.39;49.96;98752.25;5116870;27;20052;-81
2022/04/24 10:38:53;;;;;;;0.40;0.40;;;;;;;13.50;49.35;98752.25;5117129;27;20128;-81
2022/04/24 10:41:40;;;;;;;0.40;0.40;;;;;;;13.53;48.76;98766.06;5119229;27;20150;-81
2022/04/24 10:44:12;;;;;;;0.40;0.40;;;;;;;13.52;49.36;98747.34;5115186;27;20100;-82
2022/04/24 10:46:44;;;;;;;0.40;0.40;;;;;;;13.34;50.28;98770.38;5094748;27;20072;-83
2022/04/24 10:49:13;;;;;;;0.32;0.32;;;;;;;13.25;52.19;98782.81;5120604;27;20076;-80
2022/04/24 10:51:45;;;;;;;0.40;0.40;;;;;;;13.01;54.49;98785.97;5117162;27;20051;-80
2022/04/24 10:54:16;;;;;;;0.40;0.40;;;;;;;12.55;57.92;98793.88;5120385;27;20578;-81
2022/04/24 10:56:49;;;;;;;0.40;0.40;;;;;;;12.03;60.02;98786.53;5115391;27;20047;-81
2022/04/24 10:59:21;;;;;;;0.40;0.40;;;;;;;11.87;61.51;98785.59;5092553;27;20047;-83
2022/04/24 11:01:53;;;;;;;0.40;0.40;;;;;;;11.80;62.04;98793.06;5117957;27;20044;-82
2022/04/24 11:04:23;;;;;;;0.40;0.40;;;;;;;11.83;62.21;98797.97;5093669;28;20055;-82
2022/04/24 11:07:04;;;;;;;0.40;0.40;;;;;;;12.01;62.14;98794.09;5111637;28;20075;-82
2022/04/24 11:09:36;;;;;;;0.40;0.40;;;;;;;12.09;61.56;98789.00;5115086;27;20425;-81
2022/04/24 11:12:07;;;;;;;0.40;0.40;;;;;;;12.16;61.38;98787.97;5113266;27;20517;-83
2022/04/24 11:14:37;;;;;;;0.40;0.40;;;;;;;12.28;61.26;98805.66;5101047;27;20054;-82
2022/04/24 11:17:06;;;;;;;0.40;0.40;;;;;;;12.36;60.94;98790.81;5123808;27;20058;-82
2022/04/24 11:19:36;;;;;;;0.40;0.40;;;;;;;12.45;61.25;98802.75;5105349;28;20051;-83
2022/04/24 11:22:07;;;;;;;0.40;0.40;;;;;;;12.36;61.40;98790.81;5098927;28;20067;-82
2022/04/24 11:24:36;;;;;;;0.40;0.40;;;;;;;12.30;62.04;98783.72;5080109;28;20154;-82
2022/04/24 11:27:08;;;;;;;0.40;0.40;;;;;;;12.26;62.84;98798.88;5107788;28;20055;-82
2022/04/24 11:29:36;;;;;;;0.40;0.40;;;;;;;12.12;63.30;98807.41;5064679;28;20043;-83
2022/04/24 11:32:07;;;;;;;0.40;0.40;;;;;;;12.17;62.65;98806.63;5096203;28;20139;-82
2022/04/24 11:34:36;;;;;;;0.50;0.50;;;;;;;12.14;63.70;98791.75;5078314;28;20525;-82
2022/04/24 11:37:05;;;;;;;0.40;0.40;;;;;;;12.22;63.18;98811.28;5122630;28;20138;-83
2022/04/24 11:39:33;;;;;;;0.40;0.40;;;;;;;12.37;63.16;98816.78;5095554;28;20054;-83
2022/04/24 11:42:00;;;;;;;0.40;0.40;;;;;;;12.23;64.20;98819.16;5112666;28;20140;-83
2022/04/24 11:50:13;;;;;;;0.40;0.40;;;;;;;12.17;65.22;98825.56;5123975;28;20047;-82
2022/04/24 11:53:00;;;;;;;0.40;0.40;;;;;;;12.20;64.84;98808.00;5116183;27;20052;-82